Time;durP1;ratioP1;P1;durP2;ratioP2;P2;SDS_P1;SDS_P2;PMS_P1;PMS_P2;Temp;Humidity;BMP_temperature;BMP_pressure;BME280_temperature;BME280_humidity;BME280_pressure;Samples;Min_cycle;Max_cycle;Signal;HPM_P1;HPM_P2
2021/01/01 00:01:47;;;;;;;24.23;13.27;;;2.60;99.90;;;;;;5029122;28;20725;-48
2021/01/01 00:04:14;;;;;;;19.75;11.73;;;2.70;99.90;;;;;;5022246;28;20042;-48
2021/01/01 00:06:46;;;;;;;24.95;15.38;;;2.70;99.90;;;;;;5018364;28;20083;-49
2021/01/01 00:09:13;;;;;;;19.40;12.80;;;2.80;99.90;;;;;;5023184;28;20045;-48
2021/01/01 00:11:40;;;;;;;23.20;12.23;;;2.70;99.90;;;;;;5024336;28;20076;-49
2021/01/01 00:14:07;;;;;;;24.00;12.10;;;2.80;99.90;;;;;;5028751;28;20057;-48
2021/01/01 00:16:34;;;;;;;25.52;13.23;;;2.70;99.90;;;;;;5026825;28;20053;-48
2021/01/01 00:19:01;;;;;;;22.73;12.52;;;2.70;99.90;;;;;;5016274;28;20041;-48
2021/01/01 00:21:31;;;;;;;30.80;16.75;;;2.70;99.90;;;;;;5029801;28;20041;-48
2021/01/01 00:23:58;;;;;;;24.80;13.20;;;2.80;99.90;;;;;;5020639;28;20050;-49
2021/01/01 00:26:25;;;;;;;20.95;12.57;;;2.80;99.90;;;;;;5017338;28;20053;-48
2021/01/01 00:28:52;;;;;;;29.35;14.15;;;2.80;99.90;;;;;;5022934;28;20049;-48
2021/01/01 00:31:24;;;;;;;20.00;12.68;;;2.80;99.90;;;;;;5030714;28;20046;-48
2021/01/01 00:33:51;;;;;;;24.67;14.25;;;2.80;99.90;;;;;;5028943;28;20042;-48
2021/01/01 00:36:22;;;;;;;38.70;20.45;;;2.80;99.90;;;;;;5029010;28;20049;-48
2021/01/01 00:38:51;;;;;;;37.40;21.73;;;2.70;99.90;;;;;;5028237;28;20046;-48
2021/01/01 00:41:25;;;;;;;36.83;21.38;;;2.70;99.90;;;;;;5028086;28;20049;-48
2021/01/01 00:43:53;;;;;;;;;;;2.60;99.90;;;;;;5031786;28;20053;-48
2021/01/01 00:46:21;;;;;;;52.55;27.55;;;2.60;99.90;;;;;;5031520;28;19971;-48
2021/01/01 00:48:47;;;;;;;21.70;11.00;;;2.50;99.90;;;;;;5016738;28;20056;-48
2021/01/01 00:51:14;;;;;;;17.33;9.93;;;2.60;99.90;;;;;;5032036;28;20052;-48
2021/01/01 00:53:43;;;;;;;26.98;14.23;;;2.70;99.90;;;;;;5030167;28;20060;-49
2021/01/01 00:56:18;;;;;;;34.55;17.15;;;2.70;99.90;;;;;;5033179;28;20053;-49
2021/01/01 00:58:45;;;;;;;19.10;9.63;;;2.80;99.90;;;;;;5031351;28;20132;-48
2021/01/01 01:01:11;;;;;;;11.88;7.30;;;2.80;99.90;;;;;;5033401;28;20054;-47
2021/01/01 01:03:38;;;;;;;10.98;5.85;;;2.90;99.90;;;;;;5031775;28;20060;-48
2021/01/01 01:06:04;;;;;;;11.57;6.13;;;2.90;99.90;;;;;;5031494;28;20045;-49
2021/01/01 01:08:31;;;;;;;14.52;7.70;;;3.00;99.90;;;;;;5027785;28;20049;-48
2021/01/01 01:10:57;;;;;;;12.25;6.72;;;3.00;99.90;;;;;;5018653;28;20475;-48
2021/01/01 01:13:23;;;;;;;8.63;4.07;;;3.00;99.90;;;;;;5023585;28;20447;-49
2021/01/01 01:15:50;;;;;;;9.30;3.67;;;3.10;99.90;;;;;;5023802;28;20053;-48
2021/01/01 01:18:16;;;;;;;6.07;3.38;;;3.10;99.90;;;;;;5033235;28;20403;-49
2021/01/01 01:20:42;;;;;;;6.03;3.67;;;3.10;99.90;;;;;;5030763;28;20045;-47
2021/01/01 01:23:09;;;;;;;8.57;4.43;;;3.10;99.90;;;;;;5032503;28;20437;-48
2021/01/01 01:25:35;;;;;;;19.52;10.55;;;3.10;99.90;;;;;;5028854;28;20042;-48
2021/01/01 01:28:02;;;;;;;18.83;10.10;;;3.00;99.90;;;;;;5032351;28;20067;-48
2021/01/01 01:30:29;;;;;;;19.45;9.70;;;3.00;99.90;;;;;;5031237;28;20053;-47
2021/01/01 01:32:55;;;;;;;10.82;5.50;;;2.90;99.90;;;;;;5029903;28;20061;-48
2021/01/01 01:35:22;;;;;;;12.60;6.13;;;3.00;99.90;;;;;;5019908;28;20518;-49
2021/01/01 01:37:49;;;;;;;27.23;15.18;;;3.00;99.90;;;;;;5027214;28;20064;-48
2021/01/01 01:40:16;;;;;;;40.10;21.02;;;3.00;99.90;;;;;;5029308;28;20410;-48
2021/01/01 01:42:45;;;;;;;13.70;7.32;;;2.90;99.90;;;;;;5028574;28;20372;-48
2021/01/01 01:45:13;;;;;;;7.75;4.72;;;3.00;99.90;;;;;;5032145;28;20053;-48
2021/01/01 01:47:40;;;;;;;7.72;4.25;;;3.00;99.90;;;;;;5032034;28;20056;-48
2021/01/01 01:50:08;;;;;;;10.20;6.70;;;3.00;99.90;;;;;;5024353;28;20049;-48
2021/01/01 01:52:35;;;;;;;10.10;6.57;;;3.00;99.90;;;;;;5020434;28;20057;-48
2021/01/01 01:55:03;;;;;;;9.57;6.53;;;3.00;99.90;;;;;;5027855;28;20049;-48
2021/01/01 01:57:32;;;;;;;9.40;6.65;;;3.00;99.90;;;;;;5029677;28;20144;-49
2021/01/01 02:00:06;;;;;;;7.57;3.95;;;3.00;99.90;;;;;;5027431;28;20046;-48
2021/01/01 02:02:32;;;;;;;10.18;4.20;;;3.00;99.90;;;;;;5018692;28;20046;-48
2021/01/01 02:04:59;;;;;;;5.95;3.53;;;3.00;99.90;;;;;;5029936;28;20046;-48
2021/01/01 02:07:25;;;;;;;5.30;3.70;;;3.10;99.90;;;;;;5023105;28;20050;-48
2021/01/01 02:09:52;;;;;;;4.50;2.47;;;3.10;99.90;;;;;;5029866;28;20065;-48
2021/01/01 02:12:22;;;;;;;7.55;4.47;;;3.10;99.90;;;;;;5029397;28;20061;-48
2021/01/01 02:14:50;;;;;;;4.80;2.72;;;3.10;99.90;;;;;;5022815;28;20511;-48
2021/01/01 02:17:17;;;;;;;8.88;3.55;;;3.10;99.90;;;;;;5030697;28;20056;-49
2021/01/01 02:19:43;;;;;;;5.85;2.88;;;3.20;99.90;;;;;;5032137;28;20367;-48
2021/01/01 02:22:10;;;;;;;6.03;3.47;;;3.30;99.90;;;;;;5031000;28;20041;-48
2021/01/01 02:24:36;;;;;;;6.38;3.22;;;3.30;99.90;;;;;;5029852;28;20379;-48
2021/01/01 02:27:03;;;;;;;5.85;2.85;;;3.40;99.90;;;;;;5030855;28;20056;-49
2021/01/01 02:29:30;;;;;;;4.13;2.15;;;3.30;99.90;;;;;;5028263;28;20049;-48
2021/01/01 02:32:00;;;;;;;7.45;2.45;;;3.40;99.90;;;;;;5013427;28;20050;-48
2021/01/01 02:34:26;;;;;;;4.80;2.20;;;3.40;99.90;;;;;;5031303;28;20060;-48
2021/01/01 02:36:53;;;;;;;4.15;1.80;;;3.30;99.90;;;;;;5022704;28;20145;-49
2021/01/01 02:39:19;;;;;;;3.30;1.98;;;3.30;99.90;;;;;;5027749;28;20053;-48
2021/01/01 02:41:46;;;;;;;6.55;2.70;;;3.30;99.90;;;;;;5029395;28;20053;-49
2021/01/01 02:44:12;;;;;;;5.78;1.52;;;3.30;99.90;;;;;;5031055;28;20463;-48
2021/01/01 02:46:39;;;;;;;3.25;1.85;;;3.30;99.90;;;;;;5029569;28;20041;-48
2021/01/01 02:49:06;;;;;;;3.70;2.28;;;3.30;99.90;;;;;;5016478;28;20406;-51
2021/01/01 02:51:33;;;;;;;5.28;2.65;;;3.30;99.90;;;;;;5027404;28;20045;-51
2021/01/01 02:53:59;;;;;;;3.65;2.45;;;3.40;99.90;;;;;;5027940;28;20475;-48
2021/01/01 02:56:26;;;;;;;4.57;2.75;;;3.40;99.90;;;;;;5022572;28;20061;-50
2021/01/01 02:58:52;;;;;;;5.32;2.22;;;3.40;99.90;;;;;;5021757;28;20045;-48
2021/01/01 03:01:19;;;;;;;4.25;2.60;;;3.30;99.90;;;;;;5031373;28;20045;-48
2021/01/01 03:03:46;;;;;;;8.30;2.38;;;3.30;99.90;;;;;;5025266;28;20057;-49
2021/01/01 03:06:12;;;;;;;9.70;4.53;;;3.30;99.90;;;;;;5018422;28;20041;-48
2021/01/01 03:08:39;;;;;;;11.25;6.78;;;3.30;99.90;;;;;;5025561;28;20056;-48
2021/01/01 03:11:05;;;;;;;12.48;7.50;;;3.30;99.90;;;;;;5021255;28;20076;-48
2021/01/01 03:13:31;;;;;;;13.70;7.78;;;3.30;99.90;;;;;;5031889;28;20544;-48
2021/01/01 03:15:58;;;;;;;11.25;6.47;;;3.20;99.90;;;;;;5030546;28;20050;-49
2021/01/01 03:18:30;;;;;;;12.90;4.75;;;3.20;99.90;;;;;;5030819;28;20053;-48
2021/01/01 03:20:56;;;;;;;6.30;3.55;;;3.20;99.90;;;;;;5029165;28;20382;-49
2021/01/01 03:23:22;;;;;;;5.30;3.28;;;3.20;99.90;;;;;;5013451;28;20053;-48
2021/01/01 03:25:49;;;;;;;12.60;5.72;;;3.20;99.90;;;;;;5029098;28;20041;-48
2021/01/01 03:28:15;;;;;;;12.82;5.53;;;3.30;99.90;;;;;;5027762;28;20048;-48
2021/01/01 03:30:42;;;;;;;4.40;2.47;;;3.20;99.90;;;;;;5022687;28;20053;-48
2021/01/01 03:33:09;;;;;;;7.53;2.67;;;3.20;99.90;;;;;;5018643;28;20045;-48
2021/01/01 03:35:35;;;;;;;9.20;4.93;;;3.20;99.90;;;;;;5029713;28;20069;-49
2021/01/01 03:38:02;;;;;;;14.57;8.23;;;3.30;99.90;;;;;;5027388;28;20836;-48
2021/01/01 03:40:29;;;;;;;20.77;9.32;;;3.20;99.90;;;;;;5022912;28;20041;-50
2021/01/01 03:42:55;;;;;;;12.65;7.97;;;3.20;99.90;;;;;;5027776;28;20507;-48
2021/01/01 03:45:22;;;;;;;7.50;1.98;;;3.20;99.90;;;;;;5013010;28;20046;-48
2021/01/01 03:47:48;;;;;;;6.43;3.35;;;3.20;99.90;;;;;;5029482;28;20053;-48
2021/01/01 03:50:15;;;;;;;14.68;5.85;;;3.30;99.90;;;;;;5022220;28;20071;-50
2021/01/01 03:52:41;;;;;;;9.25;3.90;;;3.30;99.90;;;;;;5020677;28;20388;-48
2021/01/01 03:55:08;;;;;;;5.95;3.60;;;3.20;99.90;;;;;;5028723;28;20056;-48
2021/01/01 03:57:35;;;;;;;4.65;2.70;;;3.30;99.90;;;;;;5030520;28;20045;-49
2021/01/01 04:00:05;;;;;;;4.10;1.90;;;3.20;99.90;;;;;;5027876;28;20056;-48
2021/01/01 04:02:32;;;;;;;4.35;2.25;;;3.20;99.90;;;;;;5013347;28;20045;-48
2021/01/01 04:04:59;;;;;;;11.95;5.05;;;3.20;99.90;;;;;;5022696;28;20042;-48
2021/01/01 04:07:25;;;;;;;14.73;6.95;;;3.20;99.90;;;;;;5017807;28;20488;-48
2021/01/01 04:09:52;;;;;;;11.10;5.75;;;3.00;99.90;;;;;;5017840;28;20050;-48
2021/01/01 04:12:19;;;;;;;13.18;7.20;;;3.00;99.90;;;;;;5024904;28;20072;-48
2021/01/01 04:14:45;;;;;;;13.38;7.30;;;3.00;99.90;;;;;;5014922;28;20051;-48
2021/01/01 04:17:12;;;;;;;10.93;7.07;;;3.00;99.90;;;;;;5024619;28;20087;-47
2021/01/01 04:19:38;;;;;;;12.70;6.15;;;3.00;99.90;;;;;;5026297;28;20048;-51
2021/01/01 04:22:05;;;;;;;10.30;5.57;;;3.00;99.90;;;;;;5028080;28;20072;-48
2021/01/01 04:24:31;;;;;;;13.55;6.63;;;3.00;99.90;;;;;;5019960;28;20414;-48
2021/01/01 04:26:58;;;;;;;12.65;6.32;;;3.00;99.90;;;;;;5034682;28;20057;-48
2021/01/01 04:29:24;;;;;;;14.88;8.57;;;3.00;99.90;;;;;;5032880;28;20049;-50
2021/01/01 04:31:51;;;;;;;14.77;7.28;;;3.00;99.90;;;;;;5018699;28;20056;-49
2021/01/01 04:34:17;;;;;;;10.85;6.63;;;3.00;99.90;;;;;;5031192;28;20116;-48
2021/01/01 04:36:44;;;;;;;8.63;5.82;;;3.00;99.90;;;;;;5024622;28;20050;-50
2021/01/01 04:39:10;;;;;;;48.80;8.15;;;3.00;99.90;;;;;;5026852;28;20061;-48
2021/01/01 04:41:41;;;;;;;18.48;7.80;;;3.00;99.90;;;;;;5028439;28;20061;-48
2021/01/01 04:44:07;;;;;;;16.20;7.25;;;2.90;99.90;;;;;;5028801;28;20465;-48
2021/01/01 04:46:37;;;;;;;13.93;6.95;;;2.90;99.90;;;;;;5025021;28;20068;-48
2021/01/01 04:49:04;;;;;;;11.15;6.95;;;2.90;99.90;;;;;;5033191;28;20053;-48
2021/01/01 04:51:30;;;;;;;13.73;6.10;;;2.90;99.90;;;;;;5031974;28;20132;-48
2021/01/01 04:53:57;;;;;;;12.63;7.13;;;2.90;99.90;;;;;;5018379;28;20383;-49
2021/01/01 04:56:24;;;;;;;20.20;7.93;;;2.90;99.90;;;;;;5032608;28;20064;-48
2021/01/01 04:58:53;;;;;;;14.27;7.32;;;2.90;99.90;;;;;;5030668;28;20049;-49
2021/01/01 05:01:23;;;;;;;14.00;5.32;;;2.90;99.90;;;;;;5031734;28;20054;-49
2021/01/01 05:03:50;;;;;;;10.10;6.70;;;2.90;99.90;;;;;;5029960;28;20048;-48
2021/01/01 05:06:29;;;;;;;12.68;6.82;;;2.90;99.90;;;;;;5028539;28;20052;-48
2021/01/01 05:08:58;;;;;;;32.35;16.67;;;3.00;99.90;;;;;;5032003;28;20049;-51
2021/01/01 05:11:26;;;;;;;19.63;11.88;;;3.00;99.90;;;;;;5029965;28;20057;-49
2021/01/01 05:13:58;;;;;;;19.67;11.60;;;3.00;99.90;;;;;;5033841;28;20430;-48
2021/01/01 05:16:24;;;;;;;17.02;9.30;;;3.00;99.90;;;;;;5028819;28;20394;-49
2021/01/01 05:18:55;;;;;;;13.27;6.72;;;2.90;99.90;;;;;;5033026;28;20053;-48
2021/01/01 05:21:28;;;;;;;11.00;6.30;;;2.80;99.90;;;;;;5032030;28;20068;-48
2021/01/01 05:23:56;;;;;;;7.30;5.85;;;2.80;99.90;;;;;;5030899;28;20811;-48
2021/01/01 05:26:27;;;;;;;10.00;5.70;;;2.80;99.90;;;;;;5030048;28;20128;-48
2021/01/01 05:29:05;;;;;;;15.13;6.00;;;2.80;99.90;;;;;;5032918;28;20045;-48
2021/01/01 05:31:41;;;;;;;9.43;6.20;;;2.70;99.90;;;;;;5021786;28;20050;-48
2021/01/01 05:34:10;;;;;;;11.88;5.88;;;2.70;99.90;;;;;;5032264;28;20045;-49
2021/01/01 05:36:38;;;;;;;7.57;4.05;;;2.60;99.90;;;;;;5031425;28;20058;-49
2021/01/01 05:39:17;;;;;;;7.55;3.60;;;2.60;99.90;;;;;;5029125;28;20046;-48
2021/01/01 05:41:46;;;;;;;7.85;5.55;;;2.60;99.90;;;;;;5030011;28;20052;-48
2021/01/01 05:44:20;;;;;;;11.65;5.65;;;2.60;99.90;;;;;;5031120;28;20050;-48
2021/01/01 05:46:56;;;;;;;13.57;6.70;;;2.60;99.90;;;;;;5030571;28;20045;-49
2021/01/01 05:49:35;;;;;;;12.32;5.22;;;2.60;99.90;;;;;;5031628;28;20477;-48
2021/01/01 05:52:12;;;;;;;7.97;4.40;;;2.70;99.90;;;;;;5030796;28;20479;-48
2021/01/01 05:54:41;;;;;;;4.68;3.70;;;2.70;99.90;;;;;;5031085;28;20056;-49
2021/01/01 05:57:09;;;;;;;7.07;3.45;;;2.70;99.90;;;;;;5031385;28;20049;-48
2021/01/01 05:59:38;;;;;;;7.00;3.53;;;2.80;99.90;;;;;;5022676;28;20052;-49
2021/01/01 06:02:07;;;;;;;6.35;3.65;;;2.80;99.90;;;;;;5027535;28;20050;-48
2021/01/01 06:04:33;;;;;;;5.88;4.15;;;2.70;99.90;;;;;;5029923;28;20048;-48
2021/01/01 06:07:02;;;;;;;9.18;4.28;;;2.80;99.90;;;;;;5015798;28;20041;-48
2021/01/01 06:09:31;;;;;;;6.68;4.40;;;2.80;99.90;;;;;;5030455;28;20441;-48
2021/01/01 06:12:00;;;;;;;6.25;3.95;;;2.70;99.90;;;;;;5029087;28;20045;-48
2021/01/01 06:14:34;;;;;;;7.78;4.72;;;2.80;99.90;;;;;;5031337;28;20128;-48
2021/01/01 06:17:09;;;;;;;10.15;5.10;;;2.80;99.90;;;;;;5028887;28;20053;-48
2021/01/01 06:19:50;;;;;;;8.68;5.03;;;2.80;99.90;;;;;;5029890;28;20478;-48
2021/01/01 06:22:19;;;;;;;11.95;5.30;;;2.80;99.90;;;;;;5027760;28;20046;-49
2021/01/01 06:24:56;;;;;;;8.45;4.10;;;2.80;99.90;;;;;;5017829;28;20052;-48
2021/01/01 06:27:28;;;;;;;9.10;4.13;;;2.80;99.90;;;;;;5030589;28;20498;-48
2021/01/01 06:30:25;;;;;;;7.72;4.05;;;2.80;99.90;;;;;;5029607;28;20049;-49
2021/01/01 06:32:52;;;;;;;13.55;6.80;;;2.80;99.90;;;;;;5015177;28;20049;-48
2021/01/01 06:35:23;;;;;;;16.17;7.63;;;2.80;99.90;;;;;;5028621;28;20053;-49
2021/01/01 06:37:56;;;;;;;11.13;5.45;;;2.80;99.90;;;;;;5018547;28;20128;-50
2021/01/01 06:40:22;;;;;;;8.35;5.45;;;2.90;99.90;;;;;;5027635;28;20065;-48
2021/01/01 06:43:04;;;;;;;9.90;4.85;;;2.80;99.90;;;;;;5030396;28;20049;-48
2021/01/01 06:45:45;;;;;;;10.48;5.88;;;2.90;99.90;;;;;;5027211;28;20503;-48
2021/01/01 06:48:12;;;;;;;13.27;7.80;;;2.90;99.90;;;;;;5029485;28;20172;-48
2021/01/01 06:50:43;;;;;;;10.02;7.10;;;2.80;99.90;;;;;;5028227;28;20053;-48
2021/01/01 06:53:14;;;;;;;13.52;6.65;;;2.90;99.90;;;;;;5029069;28;20054;-48
2021/01/01 06:55:42;;;;;;;10.82;6.50;;;2.80;99.90;;;;;;5030471;28;20049;-49
2021/01/01 06:58:10;;;;;;;6.03;2.85;;;2.80;99.90;;;;;;5028579;28;20071;-48
2021/01/01 07:00:45;;;;;;;5.72;3.88;;;2.90;99.90;;;;;;5027704;28;20491;-48
2021/01/01 07:05:54;;;;;;;5.57;3.85;;;2.90;99.90;;;;;;5018572;28;20654;-48
2021/01/01 07:08:44;;;;;;;6.38;3.50;;;2.90;99.90;;;;;;5019861;28;20057;-48
2021/01/01 07:13:55;;;;;;;10.65;5.78;;;3.00;99.90;;;;;;5027962;28;20065;-48
2021/01/01 07:16:24;;;;;;;12.60;7.38;;;2.90;99.90;;;;;;5015527;28;20053;-48
2021/01/01 07:18:52;;;;;;;14.85;8.10;;;3.00;99.90;;;;;;5020601;28;20054;-48
2021/01/01 07:21:20;;;;;;;9.50;6.78;;;3.00;99.90;;;;;;5023492;28;20052;-48
2021/01/01 07:23:47;;;;;;;5.72;4.13;;;3.00;99.90;;;;;;5015956;28;20068;-49
2021/01/01 07:26:15;;;;;;;7.35;4.07;;;3.00;99.90;;;;;;5024508;28;20060;-48
2021/01/01 07:28:47;;;;;;;8.57;5.40;;;3.10;99.90;;;;;;5022665;28;20474;-48
2021/01/01 07:31:16;;;;;;;12.23;5.78;;;3.10;99.90;;;;;;5030296;28;20053;-48
2021/01/01 07:33:42;;;;;;;8.25;5.80;;;3.10;99.90;;;;;;5028575;28;20053;-48
2021/01/01 07:36:11;;;;;;;12.32;6.38;;;3.10;99.90;;;;;;5026472;28;20057;-48
2021/01/01 07:38:43;;;;;;;15.95;9.15;;;3.10;99.90;;;;;;5027632;28;20053;-48
2021/01/01 07:41:10;;;;;;;21.17;11.13;;;3.10;99.90;;;;;;5030106;28;20506;-48
2021/01/01 07:43:38;;;;;;;17.45;10.23;;;3.20;99.90;;;;;;5028746;28;20061;-49
2021/01/01 07:46:07;;;;;;;26.85;11.48;;;3.10;99.90;;;;;;5027568;28;20054;-49
2021/01/01 07:48:34;;;;;;;23.60;10.95;;;3.20;99.90;;;;;;5031388;28;20053;-48
2021/01/01 07:51:07;;;;;;;15.00;8.63;;;3.10;99.90;;;;;;5028591;28;20132;-49
2021/01/01 07:53:37;;;;;;;19.58;9.07;;;3.10;99.90;;;;;;5018928;28;20061;-48
2021/01/01 07:56:07;;;;;;;19.73;9.93;;;3.10;99.90;;;;;;5027413;28;20492;-49
2021/01/01 07:58:35;;;;;;;29.80;15.52;;;3.20;99.90;;;;;;5028257;28;20505;-48
2021/01/01 08:01:09;;;;;;;38.35;15.95;;;3.20;99.90;;;;;;5032508;28;20049;-48
2021/01/01 08:03:38;;;;;;;56.63;21.00;;;3.30;99.90;;;;;;5033013;28;20049;-48
2021/01/01 08:06:09;;;;;;;22.35;10.55;;;3.20;99.90;;;;;;5024928;28;20050;-48
2021/01/01 08:08:36;;;;;;;36.38;10.00;;;3.20;99.90;;;;;;5025554;28;20041;-48
2021/01/01 08:11:06;;;;;;;26.70;10.07;;;3.20;99.90;;;;;;5034203;28;20049;-48
2021/01/01 08:13:33;;;;;;;22.50;10.38;;;3.10;99.90;;;;;;5031203;28;20465;-48
2021/01/01 08:16:16;;;;;;;15.45;8.68;;;3.10;99.90;;;;;;5026540;28;20108;-48
2021/01/01 08:18:43;;;;;;;13.73;7.03;;;3.10;99.90;;;;;;5034787;28;20417;-48
2021/01/01 08:21:10;;;;;;;20.77;12.73;;;3.20;99.90;;;;;;5030803;28;20041;-48
2021/01/01 08:23:53;;;;;;;16.05;9.35;;;3.20;99.90;;;;;;5022737;28;20066;-48
2021/01/01 08:26:20;;;;;;;22.08;14.32;;;3.20;99.90;;;;;;5029400;28;20045;-48
2021/01/01 08:28:49;;;;;;;27.02;13.60;;;3.20;99.90;;;;;;5034058;28;20067;-48
2021/01/01 08:31:20;;;;;;;22.60;12.50;;;3.30;99.90;;;;;;5032266;28;20053;-50
2021/01/01 08:33:51;;;;;;;19.30;11.15;;;3.30;99.90;;;;;;5033872;28;21395;-48
2021/01/01 08:36:17;;;;;;;39.72;16.42;;;3.40;99.90;;;;;;5032468;28;20057;-49
2021/01/01 08:38:44;;;;;;;61.92;31.98;;;3.40;99.90;;;;;;5031861;28;20056;-48
2021/01/01 08:41:16;;;;;;;48.15;25.05;;;3.50;99.90;;;;;;5029968;28;20046;-48
2021/01/01 08:43:43;;;;;;;37.13;19.05;;;3.50;99.90;;;;;;5032704;28;20042;-49
2021/01/01 08:46:17;;;;;;;23.77;13.65;;;3.50;99.90;;;;;;5015294;28;20387;-49
2021/01/01 08:48:43;;;;;;;34.42;16.65;;;3.50;99.90;;;;;;5028422;28;20046;-48
2021/01/01 08:51:10;;;;;;;28.30;15.88;;;3.60;99.90;;;;;;5018722;28;20516;-48
2021/01/01 08:53:41;;;;;;;35.42;19.00;;;3.60;99.90;;;;;;5029173;28;20057;-49
2021/01/01 08:56:09;;;;;;;21.73;12.43;;;3.60;99.90;;;;;;5026252;28;20527;-48
2021/01/01 08:58:36;;;;;;;11.07;7.40;;;3.70;99.90;;;;;;5017218;28;20049;-50
2021/01/01 09:01:23;;;;;;;14.95;9.52;;;3.80;99.90;;;;;;5031776;28;20512;-51
2021/01/01 09:04:01;;;;;;;14.98;8.23;;;3.90;99.90;;;;;;5026035;28;20052;-49
2021/01/01 09:06:28;;;;;;;27.33;15.73;;;3.90;99.90;;;;;;5021694;28;20066;-50
2021/01/01 09:09:06;;;;;;;27.50;15.98;;;3.90;99.90;;;;;;5028927;28;20057;-50
2021/01/01 09:11:33;;;;;;;33.45;19.05;;;3.90;99.90;;;;;;5015378;28;20054;-49
2021/01/01 09:14:01;;;;;;;38.47;22.92;;;4.00;99.90;;;;;;5027142;28;20060;-48
2021/01/01 09:16:45;;;;;;;22.55;14.75;;;4.00;99.90;;;;;;5026290;28;20438;-49
2021/01/01 09:19:12;;;;;;;28.23;18.73;;;4.00;99.90;;;;;;5024505;28;20072;-48
2021/01/01 09:21:39;;;;;;;31.20;19.40;;;4.00;99.90;;;;;;5022097;28;20077;-49
2021/01/01 09:24:06;;;;;;;42.20;24.75;;;4.00;99.90;;;;;;5033122;28;20133;-50
2021/01/01 09:26:34;;;;;;;49.78;29.52;;;4.00;99.90;;;;;;5030425;28;20052;-49
2021/01/01 09:29:06;;;;;;;34.67;20.75;;;4.00;99.90;;;;;;5022980;28;20052;-51
2021/01/01 09:31:38;;;;;;;31.90;16.50;;;4.00;99.90;;;;;;5027125;28;20539;-49
2021/01/01 09:34:07;;;;;;;37.88;19.02;;;4.10;99.90;;;;;;5020329;28;20471;-48
2021/01/01 09:36:39;;;;;;;33.53;18.10;;;4.20;99.90;;;;;;5021838;28;20054;-49
2021/01/01 09:39:07;;;;;;;22.67;14.27;;;4.10;99.90;;;;;;5028900;28;20049;-48
2021/01/01 09:41:38;;;;;;;25.58;15.50;;;4.10;99.90;;;;;;5032360;28;20046;-48
2021/01/01 09:44:05;;;;;;;25.85;15.98;;;4.10;99.90;;;;;;5030482;28;20129;-49
2021/01/01 09:46:32;;;;;;;29.80;15.80;;;4.10;99.90;;;;;;5031124;28;20065;-48
2021/01/01 09:49:00;;;;;;;57.00;33.67;;;4.10;99.90;;;;;;5032092;28;20096;-50
2021/01/01 09:51:26;;;;;;;45.80;29.58;;;4.10;99.90;;;;;;5030593;28;20057;-49
2021/01/01 09:53:53;;;;;;;61.78;36.88;;;4.10;99.90;;;;;;5026443;28;20049;-49
2021/01/01 09:56:19;;;;;;;44.42;27.58;;;4.10;99.90;;;;;;5024153;28;20386;-48
2021/01/01 09:59:06;;;;;;;37.22;22.02;;;4.10;99.90;;;;;;5014400;28;20057;-49
2021/01/01 10:01:33;;;;;;;33.00;19.92;;;4.10;99.90;;;;;;5031290;28;20053;-51
2021/01/01 10:04:01;;;;;;;31.05;21.67;;;4.00;99.90;;;;;;5031948;28;20506;-49
2021/01/01 10:06:28;;;;;;;31.85;20.70;;;4.10;99.90;;;;;;5031383;28;20557;-49
2021/01/01 10:08:55;;;;;;;26.17;16.17;;;4.10;99.90;;;;;;5031797;28;20052;-51
2021/01/01 10:11:24;;;;;;;27.67;15.02;;;4.00;99.90;;;;;;5030512;28;20057;-49
2021/01/01 10:13:51;;;;;;;22.98;13.32;;;4.00;99.90;;;;;;5027598;28;20045;-48
2021/01/01 10:16:17;;;;;;;37.45;25.20;;;4.10;99.90;;;;;;5030177;28;20045;-48
2021/01/01 10:18:44;;;;;;;46.05;24.42;;;4.10;99.90;;;;;;5031158;28;20050;-48
2021/01/01 10:21:10;;;;;;;60.63;28.15;;;4.10;99.90;;;;;;5015630;28;20042;-48
2021/01/01 10:23:37;;;;;;;54.78;29.90;;;4.20;99.90;;;;;;5032472;28;20060;-49
2021/01/01 10:26:03;;;;;;;33.13;20.83;;;4.20;99.90;;;;;;5028232;28;20041;-48
2021/01/01 10:28:30;;;;;;;17.98;10.05;;;4.20;99.90;;;;;;5030370;28;20045;-49
2021/01/01 10:30:57;;;;;;;4.95;3.47;;;4.40;99.90;;;;;;5026222;28;20060;-49
2021/01/01 10:33:23;;;;;;;7.20;2.83;;;4.50;99.90;;;;;;5013601;28;20049;-48
2021/01/01 10:35:50;;;;;;;61.72;34.70;;;4.50;99.90;;;;;;5027188;28;20510;-48
2021/01/01 10:38:17;;;;;;;46.40;26.83;;;4.50;99.90;;;;;;5030949;28;20060;-49
2021/01/01 10:40:43;;;;;;;34.67;19.80;;;4.50;99.90;;;;;;5023603;28;20045;-48
2021/01/01 10:43:10;;;;;;;33.53;20.10;;;4.50;99.90;;;;;;5018901;28;20069;-48
2021/01/01 10:45:36;;;;;;;34.65;23.00;;;4.60;99.90;;;;;;5030796;28;20049;-50
2021/01/01 10:48:03;;;;;;;68.78;42.25;;;4.60;99.90;;;;;;5027380;28;20045;-49
2021/01/01 10:50:29;;;;;;;55.95;36.03;;;4.60;99.90;;;;;;5028354;28;20057;-51
2021/01/01 10:52:56;;;;;;;63.75;38.38;;;4.50;99.90;;;;;;5026118;28;20053;-49
2021/01/01 10:55:23;;;;;;;57.53;37.20;;;4.50;99.90;;;;;;5021120;28;20502;-48
2021/01/01 10:57:49;;;;;;;62.00;40.22;;;4.50;99.90;;;;;;5032521;28;20505;-49
2021/01/01 11:00:17;;;;;;;83.82;54.17;;;4.50;99.90;;;;;;5041882;28;20041;-49
2021/01/01 11:02:43;;;;;;;84.88;34.50;;;4.50;99.90;;;;;;5022387;28;20046;-48
2021/01/01 11:05:10;;;;;;;42.13;25.17;;;4.50;99.90;;;;;;5021415;28;20049;-48
2021/01/01 11:07:37;;;;;;;26.05;17.67;;;4.40;99.90;;;;;;5021207;28;20522;-48
2021/01/01 11:10:04;;;;;;;36.30;20.42;;;4.40;99.90;;;;;;5024333;28;20042;-49
2021/01/01 11:12:33;;;;;;;30.33;18.95;;;4.50;99.90;;;;;;5030010;28;20053;-49
2021/01/01 12:22:13;;;;;;;2.15;0.60;;;5.10;99.90;;;;;;5023890;28;20049;-50
2021/01/01 12:24:48;;;;;;;3.42;1.17;;;5.20;99.90;;;;;;5025101;28;20057;-49
2021/01/01 12:27:20;;;;;;;2.85;1.50;;;5.20;99.90;;;;;;5025791;28;20057;-49
2021/01/01 12:29:47;;;;;;;5.07;2.55;;;5.20;99.90;;;;;;5025105;28;20541;-48
2021/01/01 12:32:15;;;;;;;3.63;1.00;;;5.20;99.90;;;;;;5024608;28;20052;-49
2021/01/01 12:34:42;;;;;;;6.82;1.00;;;5.20;99.90;;;;;;5029146;28;20050;-48
2021/01/01 12:37:09;;;;;;;1.42;0.60;;;5.20;99.90;;;;;;5022380;28;20072;-49
2021/01/01 12:39:36;;;;;;;2.00;0.50;;;5.20;99.90;;;;;;5035045;28;20049;-49
2021/01/01 12:42:03;;;;;;;4.90;1.13;;;5.20;99.90;;;;;;5028876;28;20046;-49
2021/01/01 12:44:30;;;;;;;5.63;1.00;;;5.20;99.90;;;;;;5026016;28;20045;-49
2021/01/01 12:47:01;;;;;;;3.58;0.55;;;5.20;99.90;;;;;;5029125;28;20061;-49
2021/01/01 12:49:28;;;;;;;1.17;0.45;;;5.20;99.90;;;;;;5028295;28;20449;-49
2021/01/01 12:51:54;;;;;;;0.93;0.40;;;5.20;99.90;;;;;;5030481;28;20053;-48
2021/01/01 12:54:21;;;;;;;2.35;0.40;;;5.20;99.90;;;;;;5031063;28;20072;-49
2021/01/01 12:56:47;;;;;;;2.22;0.40;;;5.20;99.90;;;;;;5031035;28;20057;-48
2021/01/01 12:59:14;;;;;;;1.10;0.60;;;5.20;99.90;;;;;;5030865;28;20046;-48
2021/01/01 13:01:41;;;;;;;1.58;0.70;;;5.10;99.90;;;;;;5027157;28;20049;-48
2021/01/01 13:04:07;;;;;;;0.80;0.63;;;5.10;99.90;;;;;;5034039;28;20547;-48
2021/01/01 13:06:34;;;;;;;0.98;0.20;;;5.10;99.90;;;;;;5026683;28;20057;-48
2021/01/01 13:09:02;;;;;;;0.20;0.17;;;5.10;99.90;;;;;;5030581;28;20057;-49
2021/01/01 13:11:46;;;;;;;1.00;0.22;;;5.10;99.90;;;;;;5027722;28;20050;-48
2021/01/01 13:14:13;;;;;;;0.35;0.10;;;5.10;99.90;;;;;;5037240;28;20537;-49
2021/01/01 13:16:45;;;;;;;0.10;0.08;;;5.10;99.90;;;;;;5027219;28;20053;-50
2021/01/01 13:19:12;;;;;;;0.20;0.20;;;5.10;99.90;;;;;;5028660;28;20052;-48
2021/01/01 13:21:42;;;;;;;0.10;0.00;;;5.10;99.90;;;;;;5027971;28;20046;-49
2021/01/01 13:24:08;;;;;;;0.15;0.10;;;5.10;99.90;;;;;;5028290;28;20045;-49
2021/01/01 13:26:35;;;;;;;0.10;0.00;;;5.10;99.90;;;;;;5028260;28;20049;-48
2021/01/01 13:29:04;;;;;;;0.10;0.10;;;5.10;99.90;;;;;;5026958;28;20049;-49
2021/01/01 13:31:38;;;;;;;0.10;0.10;;;5.00;99.90;;;;;;5025351;28;20046;-49
2021/01/01 13:34:07;;;;;;;0.10;0.10;;;5.00;99.90;;;;;;5025675;28;20068;-49
2021/01/01 13:36:34;;;;;;;0.00;0.00;;;5.00;99.90;;;;;;5029120;28;20057;-49
2021/01/01 13:39:02;;;;;;;0.95;0.00;;;5.00;99.90;;;;;;5028952;28;20450;-52
2021/01/01 13:41:28;;;;;;;1.30;0.20;;;5.00;99.90;;;;;;5022858;28;20045;-48
2021/01/01 13:43:56;;;;;;;1.73;0.68;;;5.00;99.90;;;;;;5030052;28;20490;-49
2021/01/01 13:46:26;;;;;;;0.70;0.40;;;5.00;99.90;;;;;;5030578;28;20049;-49
2021/01/01 13:48:53;;;;;;;0.70;0.40;;;4.90;99.90;;;;;;5028790;28;20490;-49
2021/01/01 13:51:27;;;;;;;0.10;0.10;;;5.00;99.90;;;;;;5026666;28;20588;-48
2021/01/01 13:53:54;;;;;;;0.20;0.10;;;5.00;99.90;;;;;;5031813;28;20079;-49
2021/01/01 13:56:21;;;;;;;0.28;0.20;;;5.00;99.90;;;;;;5026914;28;20056;-49
2021/01/01 13:58:48;;;;;;;4.70;2.15;;;5.00;99.90;;;;;;5025478;28;20410;-49
2021/01/01 14:01:17;;;;;;;1.38;0.25;;;5.00;99.90;;;;;;5028296;28;20426;-48
2021/01/01 14:03:44;;;;;;;0.20;0.13;;;5.00;99.90;;;;;;5024549;28;20057;-50
2021/01/01 14:06:10;;;;;;;3.58;0.60;;;5.00;99.90;;;;;;5031968;28;20041;-49
2021/01/01 14:08:37;;;;;;;0.80;0.50;;;5.00;99.90;;;;;;5028528;28;20046;-49